createdAt,value
2022-08-04T00:00:07.908Z,21.59
2022-08-04T00:02:53.453Z,21.63
2022-08-04T00:05:47.888Z,21.56
2022-08-04T00:08:42.238Z,21.54
2022-08-04T00:11:11.993Z,21.68
2022-08-04T00:13:58.161Z,21.53
2022-08-04T00:16:37.871Z,21.50
2022-08-04T00:19:11.057Z,21.50
2022-08-04T00:21:39.589Z,21.38
2022-08-04T00:24:11.344Z,21.27
2022-08-04T00:26:39.041Z,21.39
2022-08-04T00:29:05.796Z,21.53
2022-08-04T00:31:53.655Z,21.48
2022-08-04T00:34:19.371Z,21.26
2022-08-04T00:36:45.944Z,21.38
2022-08-04T00:39:14.082Z,21.35
2022-08-04T00:41:56.694Z,21.35
2022-08-04T00:44:35.532Z,21.24
2022-08-04T00:47:12.284Z,21.26
2022-08-04T00:49:57.364Z,21.33
2022-08-04T00:52:32.985Z,21.27
2022-08-04T00:55:24.395Z,21.22
2022-08-04T00:58:18.918Z,20.98
2022-08-04T01:00:58.404Z,21.18
2022-08-04T01:03:49.653Z,20.90
2022-08-04T01:06:25.314Z,20.92
2022-08-04T01:09:21.712Z,20.99
2022-08-04T01:11:58.689Z,20.85
2022-08-04T01:14:49.843Z,21.15
2022-08-04T01:17:38.265Z,21.22
2022-08-04T01:20:08.551Z,21.17
2022-08-04T01:22:34.856Z,20.96
2022-08-04T01:25:10.376Z,21.10
2022-08-04T01:28:15.905Z,20.93
2022-08-04T01:30:46.120Z,20.88
2022-08-04T01:33:17.904Z,20.60
2022-08-04T01:36:10.451Z,20.62
2022-08-04T01:38:39.816Z,20.85
2022-08-04T01:41:08.655Z,20.83
2022-08-04T01:43:36.279Z,20.60
2022-08-04T01:46:04.937Z,20.56
2022-08-04T01:48:32.032Z,20.66
2022-08-04T01:51:04.376Z,20.52
2022-08-04T01:53:35.041Z,20.44
2022-08-04T01:56:02.896Z,20.53
2022-08-04T01:58:31.593Z,20.58
2022-08-04T02:01:05.082Z,20.49
2022-08-04T02:04:21.273Z,20.55
2022-08-04T02:06:38.630Z,20.56
2022-08-04T02:09:24.541Z,20.41
2022-08-04T02:12:03.953Z,20.44
2022-08-04T02:14:40.970Z,20.29
2022-08-04T02:17:11.555Z,20.33
2022-08-04T02:19:58.798Z,20.16
2022-08-04T02:22:27.245Z,20.32
2022-08-04T02:25:02.699Z,20.33
2022-08-04T02:28:00.335Z,20.22
2022-08-04T02:30:21.121Z,20.35
2022-08-04T02:32:49.131Z,20.40
2022-08-04T02:35:25.223Z,20.34
2022-08-04T02:38:00.393Z,20.42
2022-08-04T02:40:30.026Z,20.42
2022-08-04T02:42:57.608Z,20.14
2022-08-04T02:45:25.553Z,20.13
2022-08-04T02:48:28.719Z,20.14
2022-08-04T02:50:41.404Z,20.31
2022-08-04T02:53:09.884Z,20.27
2022-08-04T02:55:36.609Z,20.34
2022-08-04T02:58:04.401Z,20.30
2022-08-04T03:00:31.198Z,20.37
2022-08-04T03:03:13.603Z,20.26
2022-08-04T03:06:11.515Z,20.16
2022-08-04T03:08:47.053Z,20.01
2022-08-04T03:11:35.288Z,19.90
2022-08-04T03:14:26.397Z,19.83
2022-08-04T03:17:17.079Z,19.74
2022-08-04T03:20:07.924Z,19.78
2022-08-04T03:22:34.225Z,19.80
2022-08-04T03:25:17.870Z,19.94
2022-08-04T03:28:01.427Z,20.10
2022-08-04T03:31:04.969Z,20.05
2022-08-04T03:33:46.501Z,19.99
2022-08-04T03:36:12.858Z,20.15
2022-08-04T03:39:16.575Z,20.06
2022-08-04T03:41:55.118Z,20.13
2022-08-04T03:44:31.144Z,19.99
2022-08-04T03:47:18.738Z,19.81
2022-08-04T03:50:02.920Z,19.65
2022-08-04T03:53:04.962Z,19.64
2022-08-04T03:55:49.315Z,19.76
2022-08-04T03:58:34.176Z,19.67
2022-08-04T04:01:16.768Z,19.84
2022-08-04T04:04:02.022Z,19.56
2022-08-04T04:07:15.070Z,19.57
2022-08-04T04:10:05.994Z,19.60
2022-08-04T04:13:16.185Z,19.50
2022-08-04T04:15:55.739Z,19.43
2022-08-04T04:18:42.921Z,19.38
2022-08-04T04:21:28.440Z,19.50
2022-08-04T04:24:16.640Z,19.60
2022-08-04T04:26:59.054Z,19.49
2022-08-04T04:29:50.381Z,19.51
2022-08-04T04:32:32.585Z,19.58
2022-08-04T04:35:30.156Z,19.55
2022-08-04T04:38:29.228Z,19.47
2022-08-04T04:41:14.524Z,19.55
2022-08-04T04:43:50.888Z,19.49
2022-08-04T04:46:30.781Z,19.49
2022-08-04T04:49:33.533Z,19.61
2022-08-04T04:52:24.514Z,19.57
2022-08-04T04:55:00.603Z,19.56
2022-08-04T04:57:54.715Z,19.65
2022-08-04T05:00:17.515Z,19.74
2022-08-04T05:03:42.837Z,19.74
2022-08-04T05:06:28.306Z,19.70
2022-08-04T05:09:16.779Z,19.71
2022-08-04T05:11:57.427Z,19.73
2022-08-04T05:14:41.192Z,19.77
2022-08-04T05:17:24.841Z,20.00
2022-08-04T05:20:04.445Z,19.99
2022-08-04T05:22:37.680Z,19.99
2022-08-04T05:25:32.356Z,20.06
2022-08-04T05:28:15.433Z,19.98
2022-08-04T05:30:49.658Z,20.11
2022-08-04T05:33:28.781Z,20.26
2022-08-04T05:36:21.706Z,20.37
2022-08-04T05:38:46.346Z,20.55
2022-08-04T05:41:12.977Z,20.58
2022-08-04T05:43:43.276Z,20.53
2022-08-04T05:46:11.066Z,20.62
2022-08-04T05:48:37.684Z,20.67
2022-08-04T05:51:05.449Z,20.78
2022-08-04T05:53:32.475Z,20.81
2022-08-04T05:55:59.972Z,20.84
2022-08-04T05:58:29.752Z,20.98
2022-08-04T06:00:57.213Z,21.12
2022-08-04T06:03:24.023Z,21.26
2022-08-04T06:05:51.651Z,21.34
2022-08-04T06:08:18.127Z,21.43
2022-08-04T06:10:46.219Z,21.53
2022-08-04T06:13:47.930Z,21.55
2022-08-04T06:16:02.283Z,21.66
2022-08-04T06:18:42.180Z,21.83
2022-08-04T06:21:18.963Z,21.92
2022-08-04T06:23:53.675Z,22.14
2022-08-04T06:26:28.764Z,22.25
2022-08-04T06:28:56.366Z,22.31
2022-08-04T06:32:27.708Z,22.48
2022-08-04T06:34:30.180Z,22.54
2022-08-04T06:36:57.376Z,22.70
2022-08-04T06:39:25.162Z,22.81
2022-08-04T06:41:55.313Z,22.90
2022-08-04T06:44:40.596Z,23.04
2022-08-04T06:47:07.370Z,23.10
2022-08-04T06:51:23.476Z,23.23
2022-08-04T06:52:21.791Z,23.40
2022-08-04T06:54:49.050Z,23.52
2022-08-04T06:57:23.055Z,23.71
2022-08-04T06:59:57.257Z,23.89
2022-08-04T07:02:26.775Z,23.98
2022-08-04T07:04:53.370Z,24.09
2022-08-04T07:07:20.258Z,24.19
2022-08-04T07:10:03.527Z,24.30
2022-08-04T07:12:30.248Z,24.49
2022-08-04T07:14:57.440Z,24.66
2022-08-04T07:17:24.335Z,24.82
2022-08-04T07:19:56.244Z,24.99
2022-08-04T07:22:25.800Z,25.04
2022-08-04T07:24:56.463Z,25.20
2022-08-04T07:27:48.235Z,25.33
2022-08-04T07:30:11.020Z,25.45
2022-08-04T07:32:38.037Z,25.66
2022-08-04T07:35:06.453Z,25.84
2022-08-04T07:37:39.270Z,26.01
2022-08-04T07:40:07.551Z,26.08
2022-08-04T07:42:34.137Z,26.20
2022-08-04T07:45:00.706Z,26.40
2022-08-04T07:47:27.548Z,26.48
2022-08-04T07:49:57.548Z,26.67
2022-08-04T07:52:25.798Z,26.68
2022-08-04T07:54:52.942Z,26.84
2022-08-04T07:57:39.736Z,26.98
2022-08-04T08:00:08.239Z,27.16
2022-08-04T08:02:35.622Z,27.30
2022-08-04T08:05:02.551Z,27.32
2022-08-04T08:07:28.981Z,27.57
2022-08-04T08:09:55.398Z,27.72
2022-08-04T08:12:36.468Z,27.84
2022-08-04T08:15:15.838Z,28.05
2022-08-04T08:17:57.710Z,28.38
2022-08-04T08:20:29.581Z,28.45
2022-08-04T08:22:56.480Z,28.46
2022-08-04T08:25:22.921Z,28.63
2022-08-04T08:27:56.395Z,28.84
2022-08-04T08:30:23.869Z,29.32
2022-08-04T08:32:50.667Z,29.56
2022-08-04T08:35:17.598Z,29.76
2022-08-04T08:37:56.259Z,29.87
2022-08-04T08:40:41.079Z,30.08
2022-08-04T08:44:06.226Z,30.31
2022-08-04T08:46:48.964Z,30.44
2022-08-04T08:50:00.416Z,30.64
2022-08-04T08:53:01.680Z,30.71
2022-08-04T08:56:02.734Z,30.86
2022-08-04T08:58:35.688Z,30.93
2022-08-04T09:01:13.337Z,31.22
2022-08-04T09:03:58.610Z,31.44
2022-08-04T09:06:47.964Z,31.72
2022-08-04T09:09:30.956Z,32.01
2022-08-04T09:12:06.063Z,32.14
2022-08-04T09:14:41.983Z,32.26
2022-08-04T09:17:18.544Z,32.50
2022-08-04T09:19:52.321Z,32.53
2022-08-04T09:22:24.345Z,32.59
2022-08-04T09:25:13.819Z,32.62
2022-08-04T09:27:46.211Z,32.46
2022-08-04T09:30:14.239Z,32.60
2022-08-04T09:32:41.372Z,32.85
2022-08-04T09:35:19.977Z,33.07
2022-08-04T09:38:12.489Z,33.12
2022-08-04T09:41:19.764Z,33.12
2022-08-04T09:44:52.325Z,33.50
2022-08-04T09:47:24.806Z,33.71
2022-08-04T09:50:22.022Z,33.67
2022-08-04T09:53:07.239Z,33.56
2022-08-04T09:55:53.610Z,33.70
2022-08-04T09:58:39.312Z,33.97
2022-08-04T10:01:21.058Z,33.90
2022-08-04T10:03:51.600Z,34.16
2022-08-04T10:06:42.933Z,34.55
2022-08-04T10:09:12.239Z,34.44
2022-08-04T10:11:56.210Z,34.13
2022-08-04T10:14:49.040Z,34.36
2022-08-04T10:17:55.020Z,34.64
2022-08-04T10:20:45.587Z,34.88
2022-08-04T10:23:56.299Z,35.34
2022-08-04T10:26:32.075Z,35.13
2022-08-04T10:29:03.571Z,35.20
2022-08-04T10:31:36.530Z,35.42
2022-08-04T10:34:11.837Z,35.20
2022-08-04T10:36:47.123Z,34.92
2022-08-04T10:39:42.631Z,34.92
2022-08-04T10:42:25.398Z,35.47
2022-08-04T10:45:23.762Z,35.25
2022-08-04T10:48:10.732Z,35.38
2022-08-04T10:50:40.496Z,35.53
2022-08-04T10:53:13.928Z,35.87
2022-08-04T10:56:07.111Z,35.94
2022-08-04T10:58:47.414Z,36.25
2022-08-04T11:02:01.086Z,36.45
2022-08-04T11:04:27.553Z,36.52
2022-08-04T11:06:55.464Z,36.52
2022-08-04T11:09:22.614Z,36.44
2022-08-04T11:12:01.116Z,35.39
2022-08-04T11:14:33.966Z,34.98
2022-08-04T11:17:07.440Z,35.55
2022-08-04T11:20:32.088Z,35.01
2022-08-04T11:23:20.426Z,34.08
2022-08-04T11:25:56.425Z,33.63
2022-08-04T11:28:39.478Z,33.45
2022-08-04T11:31:11.543Z,33.67
2022-08-04T11:33:48.094Z,34.56
2022-08-04T11:36:35.868Z,35.30
2022-08-04T11:39:11.251Z,35.19
2022-08-04T11:41:42.425Z,34.90
2022-08-04T11:44:12.898Z,34.86
2022-08-04T11:46:48.344Z,34.48
2022-08-04T11:49:57.041Z,34.23
2022-08-04T11:52:20.096Z,33.69
2022-08-04T11:54:52.473Z,33.65
2022-08-04T11:57:21.162Z,34.04
2022-08-04T11:59:49.013Z,34.28
2022-08-04T12:02:30.202Z,34.73
2022-08-04T12:04:59.507Z,33.98
2022-08-04T12:07:41.897Z,33.40
2022-08-04T12:10:41.097Z,33.54
2022-08-04T12:13:40.747Z,33.65
2022-08-04T12:16:18.560Z,33.15
2022-08-04T12:18:56.446Z,33.39
2022-08-04T12:21:33.874Z,33.63
2022-08-04T12:24:15.427Z,33.29
2022-08-04T12:26:47.139Z,33.30
2022-08-04T12:29:15.155Z,33.18
2022-08-04T12:31:51.808Z,32.90
2022-08-04T12:34:34.528Z,32.93
2022-08-04T12:37:10.226Z,32.64
2022-08-04T12:40:27.350Z,32.45
2022-08-04T12:42:33.128Z,32.37
2022-08-04T12:45:05.894Z,32.31
2022-08-04T12:47:32.450Z,32.38
2022-08-04T12:50:03.874Z,32.73
2022-08-04T12:53:01.136Z,32.40
2022-08-04T12:55:29.985Z,32.21
2022-08-04T12:57:56.658Z,31.77
2022-08-04T13:00:29.785Z,31.97
2022-08-04T13:03:09.802Z,32.04
2022-08-04T13:05:39.388Z,32.04
2022-08-04T13:08:06.436Z,31.75
2022-08-04T13:10:37.644Z,31.69
2022-08-04T13:13:04.424Z,31.55
2022-08-04T13:15:33.467Z,31.25
2022-08-04T13:18:15.534Z,31.42
2022-08-04T13:20:43.656Z,31.49
2022-08-04T13:23:12.327Z,31.37
2022-08-04T13:26:44.616Z,31.54
2022-08-04T13:28:32.225Z,31.94
2022-08-04T13:31:05.164Z,31.96
2022-08-04T13:33:38.372Z,31.94
2022-08-04T13:36:07.762Z,32.54
2022-08-04T13:38:36.709Z,33.72
2022-08-04T13:41:05.100Z,33.99
2022-08-04T13:44:18.252Z,33.13
2022-08-04T13:46:50.869Z,32.37
2022-08-04T13:49:48.527Z,32.25
2022-08-04T13:52:10.681Z,31.82
2022-08-04T13:54:42.587Z,31.47
2022-08-04T13:57:13.514Z,31.50
2022-08-04T13:59:44.503Z,31.72
2022-08-04T14:02:26.530Z,31.71
2022-08-04T14:04:57.174Z,31.33
2022-08-04T14:07:25.616Z,30.87
2022-08-04T14:10:02.516Z,30.74
2022-08-04T14:12:38.833Z,30.60
2022-08-04T14:15:54.720Z,30.50
2022-08-04T14:18:34.723Z,30.66
2022-08-04T14:21:10.768Z,30.62
2022-08-04T14:23:46.953Z,30.69
2022-08-04T14:26:18.922Z,30.91
2022-08-04T14:29:28.723Z,31.24
2022-08-04T14:31:32.388Z,31.34
2022-08-04T14:34:03.894Z,31.18
2022-08-04T14:37:04.615Z,31.07
2022-08-04T14:40:19.400Z,31.23
2022-08-04T14:42:42.003Z,31.61
2022-08-04T14:45:08.980Z,31.55
2022-08-04T14:47:52.270Z,31.65
2022-08-04T14:50:20.033Z,31.56
2022-08-04T14:52:46.468Z,31.80
2022-08-04T14:55:23.879Z,31.45
2022-08-04T14:58:34.215Z,31.72
2022-08-04T15:00:37.873Z,31.51
2022-08-04T15:03:08.491Z,31.21
2022-08-04T15:06:01.818Z,30.86
2022-08-04T15:08:31.170Z,30.59
2022-08-04T15:11:02.722Z,30.56
2022-08-04T15:13:32.771Z,30.47
2022-08-04T15:16:06.361Z,30.44
2022-08-04T15:18:35.841Z,30.16
2022-08-04T15:21:02.826Z,30.08
2022-08-04T15:23:38.954Z,29.81
2022-08-04T15:26:09.116Z,29.73
2022-08-04T15:28:37.153Z,29.60
2022-08-04T15:31:04.709Z,29.67
2022-08-04T15:33:39.770Z,29.75
2022-08-04T15:36:13.217Z,29.73
2022-08-04T15:38:50.363Z,29.65
2022-08-04T15:41:35.549Z,29.60
2022-08-04T15:44:28.795Z,29.69
2022-08-04T15:47:04.309Z,29.79
2022-08-04T15:49:30.845Z,29.63
2022-08-04T15:52:01.736Z,29.67
2022-08-04T15:54:32.779Z,29.62
2022-08-04T15:57:02.052Z,29.56
2022-08-04T16:00:09.950Z,29.19
2022-08-04T16:02:43.516Z,29.10
2022-08-04T16:05:17.254Z,29.03
2022-08-04T16:07:59.822Z,29.11
2022-08-04T16:10:35.137Z,29.24
2022-08-04T16:13:14.520Z,28.95
2022-08-04T16:15:55.268Z,29.01
2022-08-04T16:18:30.517Z,29.12
2022-08-04T16:20:59.439Z,29.06
2022-08-04T16:23:54.132Z,28.92
2022-08-04T16:26:36.714Z,28.94
2022-08-04T16:29:40.259Z,28.98
2022-08-04T16:32:12.925Z,28.70
2022-08-04T16:35:05.215Z,28.77
2022-08-04T16:37:38.776Z,28.70
2022-08-04T16:40:39.197Z,28.56
2022-08-04T16:43:16.923Z,28.45
2022-08-04T16:45:58.633Z,28.50
2022-08-04T16:48:27.690Z,28.38
2022-08-04T16:51:07.922Z,28.35
2022-08-04T16:54:02.962Z,28.31
2022-08-04T16:56:32.856Z,28.44
2022-08-04T16:59:05.848Z,28.58
2022-08-04T17:01:34.388Z,28.63
2022-08-04T17:04:05.062Z,28.83
2022-08-04T17:06:35.929Z,29.08
2022-08-04T17:09:13.440Z,29.20
2022-08-04T17:11:41.004Z,29.16
2022-08-04T17:14:08.003Z,28.91
2022-08-04T17:16:39.950Z,28.99
2022-08-04T17:19:19.792Z,29.31
2022-08-04T17:21:47.740Z,29.41
2022-08-04T17:24:17.767Z,29.33
2022-08-04T17:26:53.756Z,28.82
2022-08-04T17:29:22.424Z,28.80
2022-08-04T17:31:48.940Z,29.00
2022-08-04T17:34:21.178Z,28.89
2022-08-04T17:36:48.265Z,28.84
2022-08-04T17:39:17.689Z,28.88
2022-08-04T17:41:49.020Z,28.90
2022-08-04T17:44:15.753Z,28.61
2022-08-04T17:46:48.240Z,28.63
2022-08-04T17:49:16.811Z,28.49
2022-08-04T17:54:39.418Z,28.58
2022-08-04T17:57:20.042Z,28.48
2022-08-04T17:59:57.549Z,28.33
2022-08-04T18:02:31.779Z,28.02
2022-08-04T18:05:07.784Z,28.00
2022-08-04T18:08:41.355Z,27.82
2022-08-04T18:10:55.844Z,27.52
2022-08-04T18:13:27.690Z,27.40
2022-08-04T18:16:02.455Z,27.36
2022-08-04T18:18:29.542Z,27.24
2022-08-04T18:20:56.203Z,27.18
2022-08-04T18:23:31.879Z,27.03
2022-08-04T18:28:46.200Z,26.95
2022-08-04T18:31:13.118Z,26.89
2022-08-04T18:33:43.068Z,26.74
2022-08-04T18:36:34.146Z,26.61
2022-08-04T18:39:12.133Z,26.52
2022-08-04T18:42:03.682Z,26.35
2022-08-04T18:44:31.855Z,26.24
2022-08-04T18:47:22.512Z,26.15
2022-08-04T18:50:59.844Z,26.14
2022-08-04T18:52:32.386Z,25.86
2022-08-04T18:55:01.956Z,25.81
2022-08-04T18:57:58.768Z,25.66
2022-08-04T19:00:16.370Z,25.65
2022-08-04T19:02:46.386Z,25.78
2022-08-04T19:05:17.043Z,25.53
2022-08-04T19:08:11.206Z,25.49
2022-08-04T19:10:31.230Z,25.39
2022-08-04T19:12:58.749Z,25.34
2022-08-04T19:15:34.002Z,25.37
2022-08-04T19:18:01.728Z,25.32
2022-08-04T19:20:29.606Z,25.09
2022-08-04T19:24:27.076Z,25.11
2022-08-04T19:26:01.656Z,25.09
2022-08-04T19:28:31.664Z,24.88
2022-08-04T19:31:00.598Z,24.78
2022-08-04T19:33:30.446Z,24.91
2022-08-04T19:36:13.746Z,24.81
2022-08-04T19:38:43.956Z,24.74
2022-08-04T19:41:14.262Z,24.78
2022-08-04T19:43:43.858Z,24.69
2022-08-04T19:46:10.753Z,24.59
2022-08-04T19:48:39.117Z,24.53
2022-08-04T19:51:05.519Z,24.54
2022-08-04T19:53:37.306Z,24.61
2022-08-04T19:56:04.999Z,24.48
2022-08-04T19:58:31.451Z,24.37
2022-08-04T20:00:57.842Z,24.32
2022-08-04T20:04:09.594Z,24.21
2022-08-04T20:06:10.742Z,24.25
2022-08-04T20:08:37.164Z,24.27
2022-08-04T20:11:03.721Z,24.37
2022-08-04T20:13:36.959Z,24.15
2022-08-04T20:16:04.501Z,24.21
2022-08-04T20:18:35.034Z,24.07
2022-08-04T20:21:03.411Z,24.09
2022-08-04T20:23:48.739Z,24.04
2022-08-04T20:26:16.512Z,23.95
2022-08-04T20:28:43.005Z,23.90
2022-08-04T20:31:18.459Z,23.90
2022-08-04T20:33:49.173Z,23.98
2022-08-04T20:36:20.099Z,23.92
2022-08-04T20:38:51.664Z,23.90
2022-08-04T20:41:19.089Z,23.80
2022-08-04T20:43:46.660Z,23.84
2022-08-04T20:46:25.581Z,23.77
2022-08-04T20:48:56.830Z,23.75
2022-08-04T20:51:25.908Z,23.61
2022-08-04T20:54:00.258Z,23.56
2022-08-04T20:56:31.250Z,23.63
2022-08-04T20:58:59.470Z,23.53
2022-08-04T21:01:29.631Z,23.56
2022-08-04T21:04:27.673Z,23.55
2022-08-04T21:06:55.043Z,23.40
2022-08-04T21:09:37.280Z,23.27
2022-08-04T21:12:08.653Z,23.27
2022-08-04T21:14:35.082Z,23.27
2022-08-04T21:17:02.943Z,23.37
2022-08-04T21:19:31.517Z,23.39
2022-08-04T21:21:58.109Z,23.34
2022-08-04T21:24:26.321Z,23.33
2022-08-04T21:26:56.686Z,23.14
2022-08-04T21:29:24.464Z,22.89
2022-08-04T21:32:07.755Z,22.93
2022-08-04T21:34:39.494Z,22.91
2022-08-04T21:37:07.039Z,22.95
2022-08-04T21:39:50.514Z,22.64
2022-08-04T21:42:28.920Z,22.62
2022-08-04T21:44:57.182Z,22.87
2022-08-04T21:47:24.030Z,22.84
2022-08-04T21:49:56.349Z,22.81
2022-08-04T21:52:23.605Z,22.87
2022-08-04T21:54:54.654Z,22.87
2022-08-04T21:57:24.879Z,22.83
2022-08-04T21:59:52.184Z,22.88
2022-08-04T22:02:18.701Z,22.91
2022-08-04T22:04:45.203Z,22.82
2022-08-04T22:07:12.005Z,22.77
2022-08-04T22:09:41.553Z,22.81
2022-08-04T22:12:12.500Z,22.86
2022-08-04T22:14:39.332Z,22.75
2022-08-04T22:17:05.762Z,22.75
2022-08-04T22:19:40.363Z,22.78
2022-08-04T22:22:25.054Z,22.77
2022-08-04T22:24:53.680Z,22.71
2022-08-04T22:27:38.618Z,22.62
2022-08-04T22:30:09.392Z,22.56
2022-08-04T22:32:43.478Z,22.57
2022-08-04T22:35:36.419Z,22.50
2022-08-04T22:38:06.200Z,22.47
2022-08-04T22:40:35.799Z,22.43
2022-08-04T22:43:03.283Z,22.43
2022-08-04T22:45:44.747Z,22.38
2022-08-04T22:48:11.385Z,22.44
2022-08-04T22:50:37.761Z,22.27
2022-08-04T22:53:04.183Z,22.33
2022-08-04T22:56:06.961Z,22.27
2022-08-04T22:58:17.873Z,22.16
2022-08-04T23:00:44.465Z,22.26
2022-08-04T23:03:37.177Z,22.43
2022-08-04T23:06:07.008Z,22.33
2022-08-04T23:08:37.950Z,22.14
2022-08-04T23:11:07.725Z,22.19
2022-08-04T23:13:34.117Z,22.16
2022-08-04T23:16:04.602Z,22.15
2022-08-04T23:18:36.114Z,22.21
2022-08-04T23:21:07.614Z,22.37
2022-08-04T23:23:34.648Z,22.23
2022-08-04T23:26:07.283Z,22.26
2022-08-04T23:28:35.131Z,22.20
2022-08-04T23:31:02.956Z,22.19
2022-08-04T23:33:50.652Z,22.19
2022-08-04T23:36:15.830Z,22.22
2022-08-04T23:38:42.339Z,22.27
2022-08-04T23:41:17.236Z,22.14
2022-08-04T23:43:54.973Z,22.13
2022-08-04T23:46:22.072Z,21.72
2022-08-04T23:48:48.792Z,21.29
2022-08-04T23:51:15.724Z,21.37
2022-08-04T23:54:01.621Z,21.02
2022-08-04T23:56:29.998Z,20.91
2022-08-04T23:58:56.424Z,20.97
